Time;durP1;ratioP1;P1;durP2;ratioP2;P2;SDS_P1;SDS_P2;PMS_P1;PMS_P2;Temp;Humidity;BMP_temperature;BMP_pressure;BME280_temperature;BME280_humidity;BME280_pressure;Samples;Min_cycle;Max_cycle;Signal;HPM_P1;HPM_P2
2022/06/18 00:02:33;;;;;;;3.37;1.85;;;;;;;16.32;64.10;101178.69;18358552;32;20184;-66
2022/06/18 00:23:00;;;;;;;3.03;1.80;;;;;;;15.80;66.46;101196.81;18357519;32;20183;-66
2022/06/18 00:33:03;;;;;;;3.80;1.85;;;;;;;16.10;65.92;101192.09;18357834;32;20163;-66
2022/06/18 00:43:14;;;;;;;4.93;2.10;;;;;;;16.35;64.97;101197.06;18358435;32;20089;-66
2022/06/18 00:53:20;;;;;;;3.20;2.20;;;;;;;16.44;65.37;101193.41;18357383;32;20425;-66
2022/06/18 01:03:29;;;;;;;3.45;1.80;;;;;;;16.19;66.34;101193.78;18356461;32;20092;-66
2022/06/18 01:13:35;;;;;;;2.65;1.80;;;;;;;15.84;66.58;101197.66;18356388;32;20140;-66
2022/06/18 01:23:44;;;;;;;3.47;1.95;;;;;;;16.42;64.80;101198.72;18355605;32;20479;-66
2022/06/18 01:33:49;;;;;;;3.83;1.75;;;;;;;16.10;65.96;101194.75;18354439;32;20081;-66
2022/06/18 01:43:54;;;;;;;2.83;1.77;;;;;;;15.55;67.54;101178.66;18354398;32;20124;-66
2022/06/18 01:54:02;;;;;;;5.72;1.92;;;;;;;15.61;68.64;101181.22;18354912;32;20093;-66
2022/06/18 02:04:06;;;;;;;4.35;2.03;;;;;;;15.36;70.60;101181.47;18353656;32;20094;-66
2022/06/18 02:14:13;;;;;;;3.53;1.67;;;;;;;15.34;70.41;101177.97;18354391;32;20106;-66
2022/06/18 02:24:18;;;;;;;4.05;2.37;;;;;;;15.29;69.49;101171.91;18352677;32;20402;-66
2022/06/18 02:34:25;;;;;;;4.93;2.20;;;;;;;16.06;66.32;101178.09;18352391;32;20093;-66
2022/06/18 02:44:28;;;;;;;4.78;2.20;;;;;;;15.12;70.16;101174.69;18359581;32;20104;-66
2022/06/18 02:54:33;;;;;;;3.95;1.92;;;;;;;14.73;70.89;101188.12;18363246;32;20447;-66
2022/06/18 03:04:36;;;;;;;4.50;2.15;;;;;;;14.70;71.63;101191.62;18361285;32;20119;-66
2022/06/18 03:14:41;;;;;;;3.78;2.20;;;;;;;14.61;72.40;101201.34;18361207;32;20107;-66
2022/06/18 03:24:44;;;;;;;5.53;2.58;;;;;;;14.20;73.36;101195.41;18360186;32;20124;-66
2022/06/18 03:34:49;;;;;;;4.43;2.22;;;;;;;14.18;73.62;101203.28;18360116;32;20096;-66
2022/06/18 03:44:52;;;;;;;3.10;2.03;;;;;;;14.53;72.01;101204.88;18360827;32;20411;-66
2022/06/18 03:54:57;;;;;;;3.97;2.22;;;;;;;14.64;72.67;101196.91;18358503;32;20101;-66
2022/06/18 04:05:00;;;;;;;4.30;2.30;;;;;;;15.49;69.45;101186.63;18358856;32;20389;-66
2022/06/18 04:15:06;;;;;;;5.55;2.62;;;;;;;14.63;73.90;101204.81;18358506;32;20112;-66
2022/06/18 04:25:11;;;;;;;3.92;2.55;;;;;;;15.39;73.12;101199.00;18358115;32;20149;-66
2022/06/18 04:35:15;;;;;;;5.12;2.10;;;;;;;17.13;67.90;101191.53;18357720;32;20193;-66
2022/06/18 04:45:19;;;;;;;3.55;1.77;;;;;;;19.26;59.03;101187.09;18357228;32;20108;-67
2022/06/18 04:55:23;;;;;;;2.92;1.75;;;;;;;20.58;55.72;101195.75;18416484;32;20090;-67
2022/06/18 05:05:27;;;;;;;3.28;1.48;;;;;;;21.97;52.21;101205.22;18419952;32;20101;-67
2022/06/18 05:15:32;;;;;;;3.85;1.48;;;;;;;22.29;50.39;101216.44;18420043;32;20145;-66
2022/06/18 05:25:35;;;;;;;1.73;1.40;;;;;;;23.23;48.07;101212.72;18419495;32;20193;-67
2022/06/18 05:35:42;;;;;;;2.15;1.50;;;;;;;22.71;48.15;101224.59;18419184;32;20157;-67
2022/06/18 05:45:45;;;;;;;2.40;1.52;;;;;;;23.06;47.93;101232.94;18418862;32;20111;-66
2022/06/18 05:55:54;;;;;;;2.15;1.48;;;;;;;22.59;49.52;101244.56;18419510;32;20101;-66
2022/06/18 06:05:58;;;;;;;2.47;1.40;;;;;;;23.34;46.13;101247.81;18417856;32;20376;-67
2022/06/18 06:16:02;;;;;;;3.58;1.50;;;;;;;23.72;44.74;101222.22;18401375;32;20162;-66
2022/06/18 06:26:07;;;;;;;2.40;1.25;;;;;;;24.30;43.54;101220.50;18361972;32;20145;-66
2022/06/18 06:36:13;;;;;;;2.35;1.27;;;;;;;24.64;41.97;101229.53;18360123;32;20097;-66
2022/06/18 06:46:16;;;;;;;2.45;1.37;;;;;;;24.37;42.98;101232.59;18360926;32;20088;-66
2022/06/18 07:06:48;;;;;;;3.42;1.70;;;;;;;25.73;36.15;101224.16;18368520;31;20108;-66
2022/06/18 07:16:53;;;;;;;1.67;1.30;;;;;;;26.17;37.86;101215.50;18360733;32;20089;-66
2022/06/18 07:26:57;;;;;;;2.45;1.25;;;;;;;26.94;35.77;101205.94;18359254;31;20112;-66
2022/06/18 07:37:02;;;;;;;2.80;1.58;;;;;;;28.77;31.98;101201.81;18359909;32;20137;-66
2022/06/18 07:47:05;;;;;;;2.42;1.58;;;;;;;28.18;32.92;101201.09;18358568;32;20097;-66
2022/06/18 07:57:11;;;;;;;2.65;1.50;;;;;;;27.75;32.72;101196.63;18359428;32;20117;-66
2022/06/18 08:07:15;;;;;;;2.78;1.75;;;;;;;27.28;32.86;101194.06;18360016;32;20145;-66
2022/06/18 08:17:20;;;;;;;3.53;1.83;;;;;;;26.88;34.11;101191.09;18411275;31;20120;-66
2022/06/18 08:27:25;;;;;;;3.15;1.73;;;;;;;27.76;32.35;101179.56;18358020;32;20096;-66
2022/06/18 08:37:30;;;;;;;3.15;1.55;;;;;;;28.04;32.63;101169.78;18357309;32;20113;-66
2022/06/18 08:47:51;;;;;;;4.25;1.70;;;;;;;27.88;32.71;101160.97;18357661;32;20121;-66
2022/06/18 08:57:58;;;;;;;3.58;1.70;;;;;;;27.26;32.54;101157.59;18357283;32;20089;-66
2022/06/18 09:08:22;;;;;;;2.50;1.58;;;;;;;28.79;31.60;101147.03;18356845;32;20137;-66
2022/06/18 09:18:31;;;;;;;3.53;1.58;;;;;;;29.17;30.51;101142.69;18356029;32;20111;-67
2022/06/18 09:28:40;;;;;;;3.65;1.45;;;;;;;28.85;31.13;101137.72;18409660;31;20102;-66
2022/06/18 09:38:47;;;;;;;3.35;1.50;;;;;;;28.91;31.74;101134.59;18356513;32;20117;-66
2022/06/18 09:48:51;;;;;;;3.17;1.70;;;;;;;29.07;31.75;101125.47;18356609;32;20093;-66
2022/06/18 09:58:58;;;;;;;3.80;1.50;;;;;;;28.53;32.79;101135.34;18364165;32;20107;-66
2022/06/18 10:09:05;;;;;;;3.22;1.40;;;;;;;29.55;30.80;101123.97;18363285;32;20090;-66
2022/06/18 10:19:16;;;;;;;4.18;1.50;;;;;;;29.44;29.77;101106.78;18363308;32;20347;-66
2022/06/18 10:29:31;;;;;;;2.58;1.40;;;;;;;29.44;27.42;101093.34;18362794;31;20109;-66
2022/06/18 10:39:43;;;;;;;2.73;1.30;;;;;;;30.10;28.34;101081.44;18414935;31;20120;-66
2022/06/18 10:49:47;;;;;;;1.67;1.10;;;;;;;29.68;28.43;101080.94;18362944;32;20073;-66
2022/06/18 10:59:51;;;;;;;1.08;0.98;;;;;;;29.79;23.76;101074.78;18361310;32;20111;-66
2022/06/18 11:09:57;;;;;;;1.90;1.20;;;;;;;29.19;27.58;101078.91;18414060;31;20142;-66
2022/06/18 11:20:13;;;;;;;3.05;1.40;;;;;;;29.75;29.47;101064.22;18361291;31;20089;-66
2022/06/18 11:30:23;;;;;;;3.30;1.10;;;;;;;30.48;26.69;101046.34;18414346;31;20093;-66
2022/06/18 11:40:28;;;;;;;2.00;1.40;;;;;;;30.72;25.50;101043.59;18360209;32;20353;-66
2022/06/18 11:50:36;;;;;;;2.37;1.10;;;;;;;29.72;28.84;101029.47;18412091;31;20192;-66
2022/06/18 12:00:47;;;;;;;3.42;1.30;;;;;;;29.21;27.80;101012.50;18360535;32;20093;-66
2022/06/18 12:10:56;;;;;;;2.30;1.40;;;;;;;29.91;27.92;101009.28;18358500;32;20089;-66
2022/06/18 12:21:08;;;;;;;3.40;1.08;;;;;;;30.49;25.48;100992.38;18358131;31;20097;-66
2022/06/18 12:31:12;;;;;;;3.80;1.40;;;;;;;30.50;24.99;100977.91;18358593;32;20084;-66
2022/06/18 12:41:39;;;;;;;4.68;1.33;;;;;;;30.45;26.39;100972.03;18357634;32;20149;-66
2022/06/18 12:51:49;;;;;;;1.40;1.12;;;;;;;31.58;24.84;100966.78;18357331;32;20105;-66
2022/06/18 13:01:59;;;;;;;3.30;1.20;;;;;;;31.34;23.08;100952.47;18411289;31;20097;-66
2022/06/18 13:12:14;;;;;;;2.55;1.30;;;;;;;30.85;24.00;100944.66;18356578;31;20127;-66
2022/06/18 13:22:19;;;;;;;1.95;1.10;;;;;;;31.33;25.64;100926.50;18355948;31;20141;-66
2022/06/18 13:32:28;;;;;;;3.65;1.30;;;;;;;32.02;23.04;100912.75;18351372;32;20179;-66
2022/06/18 13:42:38;;;;;;;1.70;1.10;;;;;;;31.31;25.12;100915.00;18353562;32;20088;-65
2022/06/18 13:52:43;;;;;;;2.65;1.40;;;;;;;30.94;25.18;100907.19;18353495;32;20399;-65
2022/06/18 14:02:55;;;;;;;2.08;1.10;;;;;;;31.14;22.68;100892.06;18352996;32;20397;-67
2022/06/18 14:13:01;;;;;;;2.42;1.23;;;;;;;31.43;23.62;100880.72;18352987;31;20136;-66
2022/06/18 14:23:12;;;;;;;2.72;1.30;;;;;;;30.71;23.62;100880.25;18352130;31;20164;-66
2022/06/18 14:33:24;;;;;;;2.78;1.23;;;;;;;30.66;24.58;100866.31;18403649;31;20093;-66
2022/06/18 14:43:41;;;;;;;2.70;0.88;;;;;;;30.13;25.81;100855.13;18360313;32;20086;-66
2022/06/18 14:54:23;;;;;;;2.05;1.23;;;;;;;31.27;22.75;100832.63;18490026;32;20120;-66
2022/06/18 15:04:31;;;;;;;3.50;1.40;;;;;;;30.91;24.14;100818.47;18471496;32;20150;-67
2022/06/18 15:14:41;;;;;;;3.42;1.30;;;;;;;29.52;27.08;100818.47;18360195;32;20108;-65
2022/06/18 15:35:07;;;;;;;1.35;1.10;;;;;;;29.68;23.92;100807.38;18367463;31;20531;-66
2022/06/18 15:45:20;;;;;;;1.65;1.08;;;;;;;30.07;24.46;100798.19;18412792;31;20111;-65
2022/06/18 15:55:30;;;;;;;1.35;0.90;;;;;;;29.67;25.05;100797.59;18359471;31;20113;-65
2022/06/18 16:05:36;;;;;;;2.05;1.00;;;;;;;29.62;25.40;100792.59;18359054;32;20097;-66
2022/06/18 16:15:42;;;;;;;1.15;0.90;;;;;;;29.60;26.86;100782.94;18356133;31;74865;-66
2022/06/18 16:25:52;;;;;;;4.72;1.20;;;;;;;29.44;26.08;100785.91;18411071;31;20097;-65
2022/06/18 16:36:18;;;;;;;;;;;;;;;29.00;25.75;100797.22;18410615;31;20093;-66
2022/06/18 16:46:32;;;;;;;1.37;0.90;;;;;;;29.34;26.86;100794.66;18409757;31;19999;-66
2022/06/18 16:56:36;;;;;;;2.00;1.00;;;;;;;29.33;24.29;100786.72;18356478;32;20093;-66
2022/06/18 17:06:41;;;;;;;8.63;2.90;;;;;;;28.91;26.50;100771.88;18356059;32;20097;-66
2022/06/18 17:16:44;;;;;;;1.62;1.05;;;;;;;28.87;28.55;100767.72;18356399;32;20097;-66
2022/06/18 17:37:12;;;;;;;1.58;1.00;;;;;;;28.56;28.91;100761.00;18407646;31;20089;-66
2022/06/18 17:47:18;;;;;;;1.87;1.10;;;;;;;28.01;35.10;100758.59;18354852;31;20107;-66
2022/06/18 17:57:21;;;;;;;1.60;1.30;;;;;;;27.58;36.19;100749.91;18355392;31;20096;-66
2022/06/18 18:07:27;;;;;;;2.72;1.75;;;;;;;27.01;40.01;100752.75;18353139;32;20109;-66
2022/06/18 18:17:31;;;;;;;1.60;1.05;;;;;;;26.45;42.51;100756.31;18362721;32;20081;-65
2022/06/18 18:27:37;;;;;;;5.05;1.48;;;;;;;25.30;45.58;100755.19;18362827;32;20157;-66
2022/06/18 18:37:41;;;;;;;2.30;1.30;;;;;;;25.06;46.92;100771.69;18362341;32;20133;-66
2022/06/18 18:47:45;;;;;;;3.50;1.20;;;;;;;24.22;47.27;100760.28;18415191;31;20141;-65
2022/06/18 18:57:49;;;;;;;3.47;1.70;;;;;;;23.66;49.36;100767.62;18362091;32;20128;-66
2022/06/18 19:07:54;;;;;;;3.92;1.58;;;;;;;23.08;51.86;100772.25;18413924;31;20117;-66
2022/06/18 19:17:57;;;;;;;3.60;1.35;;;;;;;22.69;51.87;100785.59;18413626;31;20134;-66
2022/06/18 19:28:02;;;;;;;2.78;1.52;;;;;;;21.70;55.71;100798.81;18360231;32;20408;-66
2022/06/18 19:38:06;;;;;;;2.47;1.45;;;;;;;22.18;53.31;100809.16;18360281;32;20145;-66
2022/06/18 19:48:10;;;;;;;3.42;1.73;;;;;;;21.85;54.54;100825.66;18367882;32;20092;-66
2022/06/18 19:58:14;;;;;;;7.70;1.85;;;;;;;21.71;54.25;100815.63;18410787;32;20097;-66
2022/06/18 20:08:18;;;;;;;4.87;1.60;;;;;;;21.55;54.33;100820.69;18423142;32;20101;-66
2022/06/18 20:18:21;;;;;;;4.25;2.00;;;;;;;21.41;53.17;100824.78;18475398;31;20115;-66
2022/06/18 20:28:26;;;;;;;4.65;1.60;;;;;;;21.04;54.48;100828.91;18422183;32;20096;-66
2022/06/18 20:38:31;;;;;;;4.22;1.73;;;;;;;20.80;54.99;100835.06;18421181;32;20164;-66
2022/06/18 20:48:43;;;;;;;2.97;1.95;;;;;;;20.04;59.51;100826.34;18475129;31;20492;-66
2022/06/18 20:58:46;;;;;;;4.62;2.10;;;;;;;20.17;58.96;100838.28;18420995;32;20112;-66
2022/06/18 21:08:51;;;;;;;2.95;1.60;;;;;;;19.38;61.13;100848.81;18420535;32;20129;-66
2022/06/18 21:18:55;;;;;;;3.95;1.92;;;;;;;18.93;62.93;100836.94;18473797;31;20140;-66
2022/06/18 21:28:59;;;;;;;4.87;2.28;;;;;;;19.32;61.20;100836.66;18419617;32;20097;-66
2022/06/18 21:39:03;;;;;;;4.43;2.00;;;;;;;19.01;61.91;100832.28;18472541;31;20100;-66
2022/06/18 21:49:08;;;;;;;4.00;1.87;;;;;;;18.40;64.66;100847.25;18417812;32;20463;-66
2022/06/18 21:59:12;;;;;;;4.15;2.15;;;;;;;18.15;65.52;100858.47;18418140;32;20085;-66
2022/06/18 22:09:17;;;;;;;5.32;2.15;;;;;;;18.43;64.10;100860.37;18419190;32;20093;-66
2022/06/18 22:19:21;;;;;;;4.80;2.10;;;;;;;18.13;65.66;100862.94;18417723;32;20081;-66
2022/06/18 22:29:26;;;;;;;5.60;2.60;;;;;;;18.03;65.88;100850.84;18416851;32;20108;-66
2022/06/18 22:39:29;;;;;;;6.57;2.70;;;;;;;17.89;66.45;100864.41;18416708;32;20434;-66
2022/06/18 22:49:36;;;;;;;5.40;2.75;;;;;;;17.68;67.39;100871.09;18416956;32;20127;-66
2022/06/18 22:59:40;;;;;;;6.53;2.90;;;;;;;17.26;69.05;100859.75;18421079;32;20089;-66
2022/06/18 23:09:45;;;;;;;6.45;2.97;;;;;;;17.24;69.61;100866.81;18426351;32;20096;-66
2022/06/18 23:19:50;;;;;;;6.32;2.85;;;;;;;17.11;69.73;100878.56;18425011;32;20085;-67
2022/06/18 23:29:55;;;;;;;7.80;2.92;;;;;;;17.70;66.99;100872.81;18424278;32;20097;-66
2022/06/18 23:39:58;;;;;;;7.85;3.37;;;;;;;16.62;71.48;100881.28;18423765;32;20100;-66
2022/06/18 23:50:03;;;;;;;5.25;2.83;;;;;;;16.33;72.26;100886.19;18423713;32;20111;-66
